Emmalena, KY (41740)

3:04 PM EDT on October 25, 2014 (GMT -0400)
KKYJACKS3 | Change Station
CLOSE
Current Station
Personal Weather Station
Location: Talbert, KY
Elevation: 994 ft
Nearby Weather Stations

Elev 994 ft 37.41 °N, 83.42 °W | Updated 4 minutes ago

Overcast
Overcast
67.4 °F
Feels Like 67.4 °F
N
0.0
Wind Variable Wind from North
Gusts 0.0 mph

Today
High -- | Low -- °F
--% Chance of Precip.
Yesterday
High -- | Low -- °F
Precip. -- in
7:49 AM 6:42 PM
Waxing Crescent, 4% visible
Pressure 29.98 in
Visibility 10.0 miles
Clouds Overcast 2400 ft
Dew Point 53 °F
Humidity 60%
Rainfall 0.00 in
Snow Depth Not available.
UV 1 out of 12
Pollen 1.20 out of 12
Air Quality Not available.
Flu Activity Sporadic
METAR KJKL 251853Z AUTO VRB04KT 10SM OVC024 19/09 A3000 RMK AO2 SLP152 T01890094

More Conditions Fewer Conditions

Pressure 29.98 in
Visibility 10.0 miles
Clouds Overcast 2400 ft
Dew Point 53 °F
Humidity 60%
Rainfall 0.00 in
Snow Depth Not available.
UV 1 out of 12
Pollen 1.20 out of 12
Air Quality Not available.
Flu Activity Sporadic
METAR KJKL 251853Z AUTO VRB04KT 10SM OVC024 19/09 A3000 RMK AO2 SLP152 T01890094

More Conditions Fewer Conditions

10-Day Weather Forecast

Almanac

Astronomy

Oct. 25, 2014 Rise Set
Actual Time 7:49 AM EDT 6:42 PM EDT
Civil Twilight 7:23 AM EDT 7:08 PM EDT
Nautical Twilight 6:52 AM EDT 7:39 PM EDT
Astronomical Twilight 6:22 AM EDT 8:09 PM EDT
Moon 9:26 AM EDT 8:06 PM EDT
Length of Visible Light 11h 45m
Length of Day
10h 52m
Tomorrow will be 2m 11s shorter.
Waxing Crescent, 4% of the Moon is Illuminated
Today
Waxing Crescent
Oct 30
First Quarter
Nov 6
Full
Nov 14
Last Quarter
Nov 22
New

Today's Extremes

State Highs State Lows

Community

WunderPhotos

Upload Photos

1,764,958 photos uploaded!

Nearby

Snow Depth

Station Depth Elevation
No new snow has been reported.

Earthquake Activity

City Distance Mag. Time & Date
No recent earthquake activity has been reported nearby.
Minimum magnitude displayed is 2.5.

Coastal Water Temperatures

Place Temperature
No Stations Reporting

Nearby Weather Stations